createdAt,value
2023-01-26T00:02:19.266Z,19.67
2023-01-26T00:07:22.642Z,21.10
2023-01-26T00:12:26.100Z,20.90
2023-01-26T00:17:30.830Z,22.73
2023-01-26T00:22:34.182Z,21.85
2023-01-26T00:27:37.620Z,21.70
2023-01-26T00:32:42.422Z,19.67
2023-01-26T00:37:46.212Z,19.73
2023-01-26T00:42:53.261Z,21.60
2023-01-26T00:47:58.079Z,20.35
2023-01-26T00:53:01.630Z,22.57
2023-01-26T00:58:06.661Z,22.63
2023-01-26T01:03:11.401Z,22.98
2023-01-26T01:08:14.824Z,26.10
2023-01-26T01:13:18.197Z,20.95
2023-01-26T01:18:23.051Z,21.58
2023-01-26T01:23:28.984Z,22.70
2023-01-26T01:28:33.364Z,22.33
2023-01-26T01:33:38.362Z,21.38
2023-01-26T01:38:42.966Z,22.52
2023-01-26T01:43:46.814Z,20.33
2023-01-26T01:48:59.930Z,23.55
2023-01-26T01:54:07.664Z,22.83
2023-01-26T01:59:12.812Z,21.85
2023-01-26T02:04:17.916Z,23.70
2023-01-26T02:09:45.007Z,23.02
2023-01-26T02:14:48.723Z,23.77
2023-01-26T02:20:02.504Z,22.98
2023-01-26T02:25:13.732Z,23.37
2023-01-26T02:30:19.776Z,23.17
2023-01-26T02:35:23.254Z,23.90
2023-01-26T02:40:33.815Z,22.65
2023-01-26T02:45:41.300Z,22.93
2023-01-26T02:50:44.876Z,24.45
2023-01-26T02:55:48.374Z,22.60
2023-01-26T03:00:53.313Z,20.58
2023-01-26T03:05:56.671Z,21.42
2023-01-26T03:11:00.153Z,33.95
2023-01-26T03:16:08.546Z,28.70
2023-01-26T03:21:32.339Z,25.52
2023-01-26T03:26:54.208Z,22.13
2023-01-26T03:32:00.196Z,21.67
2023-01-26T03:37:04.355Z,28.35
2023-01-26T03:42:48.289Z,24.77
2023-01-26T03:48:11.329Z,23.40
2023-01-26T03:53:34.289Z,25.27
2023-01-26T03:58:37.873Z,24.85
2023-01-26T04:03:59.722Z,24.50
2023-01-26T04:09:03.326Z,20.27
2023-01-26T04:14:24.434Z,23.13
2023-01-26T04:19:46.687Z,23.33
2023-01-26T04:24:50.919Z,24.27
2023-01-26T04:29:54.230Z,24.73
2023-01-26T04:34:59.481Z,23.67
2023-01-26T04:40:05.521Z,22.00
2023-01-26T04:45:12.743Z,25.52
2023-01-26T04:50:18.336Z,26.52
2023-01-26T04:55:23.057Z,24.53
2023-01-26T05:00:26.508Z,27.15
2023-01-26T05:05:32.236Z,26.15
2023-01-26T05:10:36.807Z,28.47
2023-01-26T05:15:55.068Z,27.77
2023-01-26T05:21:18.355Z,27.33
2023-01-26T05:26:26.275Z,24.48
2023-01-26T05:32:17.790Z,24.17
2023-01-26T05:37:25.201Z,26.35
2023-01-26T05:42:29.222Z,26.15
2023-01-26T05:47:57.939Z,26.33
2023-01-26T05:53:03.254Z,25.90
2023-01-26T05:58:08.010Z,28.90
2023-01-26T06:03:11.433Z,24.63
2023-01-26T06:08:16.248Z,29.15
2023-01-26T06:13:38.236Z,29.90
2023-01-26T06:18:53.481Z,26.10
2023-01-26T06:23:59.018Z,23.83
2023-01-26T06:29:02.710Z,29.25
2023-01-26T06:34:10.788Z,26.40
2023-01-26T06:39:18.617Z,24.42
2023-01-26T06:44:22.163Z,22.85
2023-01-26T06:49:25.702Z,23.13
2023-01-26T06:54:30.390Z,24.77
2023-01-26T07:00:11.151Z,24.38
2023-01-26T07:05:31.773Z,18.90
2023-01-26T07:10:36.788Z,24.27
2023-01-26T07:15:40.063Z,21.05
2023-01-26T07:20:43.324Z,20.33
2023-01-26T07:25:47.987Z,20.10
2023-01-26T07:30:51.249Z,25.45
2023-01-26T07:35:54.995Z,22.33
2023-01-26T07:40:59.690Z,21.40
2023-01-26T07:46:03.169Z,20.88
2023-01-26T07:51:08.564Z,19.67
2023-01-26T07:56:16.006Z,19.60
2023-01-26T08:01:20.084Z,17.93
2023-01-26T08:06:25.030Z,20.90
2023-01-26T08:11:29.980Z,17.40
2023-01-26T08:16:33.302Z,18.02
2023-01-26T08:21:36.652Z,18.77
2023-01-26T08:26:41.346Z,18.08
2023-01-26T08:31:44.914Z,19.02
2023-01-26T08:36:48.221Z,13.80
2023-01-26T08:41:55.519Z,14.32
2023-01-26T08:46:58.801Z,17.00
2023-01-26T08:52:02.115Z,15.18
2023-01-26T08:57:06.835Z,17.33
2023-01-26T09:02:10.826Z,17.83
2023-01-26T09:07:14.165Z,21.40
2023-01-26T09:12:18.826Z,20.88
2023-01-26T09:17:22.090Z,19.67
2023-01-26T09:22:25.351Z,17.27
2023-01-26T09:27:30.084Z,18.88
2023-01-26T09:32:33.432Z,18.77
2023-01-26T09:37:36.795Z,19.13
2023-01-26T09:42:50.831Z,15.27
2023-01-26T09:48:05.660Z,15.45
2023-01-26T09:53:16.113Z,12.88
2023-01-26T09:58:29.464Z,14.45
2023-01-26T10:03:38.206Z,15.70
2023-01-26T10:08:43.181Z,14.05
2023-01-26T10:13:52.914Z,11.93
2023-01-26T10:19:01.548Z,12.65
2023-01-26T10:24:05.938Z,17.73
2023-01-26T10:29:16.779Z,23.10
2023-01-26T10:34:25.087Z,12.18
2023-01-26T10:39:28.379Z,13.10
2023-01-26T10:44:36.476Z,11.18
2023-01-26T10:49:39.755Z,10.93
2023-01-26T10:54:44.794Z,11.77
2023-01-26T10:59:56.311Z,10.35
2023-01-26T11:05:18.221Z,13.00
2023-01-26T11:10:25.927Z,9.45
2023-01-26T11:15:31.880Z,9.73
2023-01-26T11:21:01.142Z,9.23
2023-01-26T11:26:22.247Z,9.73
2023-01-26T11:31:39.472Z,12.02
2023-01-26T11:36:53.851Z,10.13
2023-01-26T11:42:12.037Z,9.33
2023-01-26T11:47:32.534Z,8.67
2023-01-26T11:52:47.383Z,8.63
2023-01-26T11:58:02.807Z,12.40
2023-01-26T12:03:16.748Z,10.63
2023-01-26T12:08:25.298Z,11.57
2023-01-26T12:13:36.490Z,13.32
2023-01-26T12:18:58.758Z,12.20
2023-01-26T12:24:43.535Z,12.50
2023-01-26T12:29:46.626Z,13.83
2023-01-26T12:34:51.423Z,14.02
2023-01-26T12:40:03.522Z,13.88
2023-01-26T12:45:11.263Z,12.95
2023-01-26T12:50:24.446Z,12.65
2023-01-26T12:55:31.691Z,16.77
2023-01-26T13:00:37.046Z,12.48
2023-01-26T13:05:57.351Z,11.77
2023-01-26T13:11:04.323Z,11.75
2023-01-26T13:16:35.537Z,12.48
2023-01-26T13:21:45.714Z,11.15
2023-01-26T13:26:50.762Z,12.57
2023-01-26T13:31:55.509Z,13.40
2023-01-26T13:37:10.099Z,11.82
2023-01-26T13:42:20.365Z,12.23
2023-01-26T13:47:29.345Z,9.67
2023-01-26T13:52:34.059Z,10.17
2023-01-26T13:57:37.442Z,10.07
2023-01-26T14:02:41.505Z,10.38
2023-01-26T14:07:47.689Z,10.40
2023-01-26T14:12:56.648Z,10.73
2023-01-26T14:18:02.041Z,10.17
2023-01-26T14:23:14.663Z,9.37
2023-01-26T14:28:29.340Z,9.82
2023-01-26T14:33:32.833Z,10.38
2023-01-26T14:38:44.810Z,10.38
2023-01-26T14:43:50.474Z,8.30
2023-01-26T14:48:59.933Z,9.30
2023-01-26T14:54:10.869Z,9.27
2023-01-26T14:59:23.335Z,9.43
2023-01-26T15:04:33.260Z,9.48
2023-01-26T15:09:37.957Z,7.47
2023-01-26T15:14:50.672Z,8.32
2023-01-26T15:19:54.010Z,8.18
2023-01-26T15:25:04.584Z,8.27
2023-01-26T15:30:17.100Z,7.97
2023-01-26T15:35:24.142Z,8.35
2023-01-26T15:40:29.305Z,6.90
2023-01-26T15:45:34.972Z,6.83
2023-01-26T15:50:38.314Z,7.10
2023-01-26T15:55:44.247Z,8.30
2023-01-26T16:00:47.738Z,8.00
2023-01-26T16:05:51.226Z,8.65
2023-01-26T16:10:57.044Z,7.57
2023-01-26T16:16:00.408Z,7.13
2023-01-26T16:21:12.031Z,8.43
2023-01-26T16:26:19.140Z,9.52
2023-01-26T16:31:24.890Z,8.63
2023-01-26T16:36:28.202Z,8.20
2023-01-26T16:41:33.887Z,8.65
2023-01-26T16:46:37.367Z,8.43
2023-01-26T16:51:41.736Z,6.80
2023-01-26T16:56:46.447Z,8.30
2023-01-26T17:01:49.794Z,9.50
2023-01-26T17:06:53.152Z,9.38
2023-01-26T17:11:57.914Z,10.37
2023-01-26T17:17:01.262Z,12.15
2023-01-26T17:22:04.748Z,12.50
2023-01-26T17:27:10.386Z,11.48
2023-01-26T17:32:13.764Z,12.53
2023-01-26T17:37:17.073Z,12.77
2023-01-26T17:42:22.269Z,12.77
2023-01-26T17:47:25.860Z,11.68
2023-01-26T17:52:31.436Z,11.93
2023-01-26T17:57:36.570Z,12.35
2023-01-26T18:02:40.036Z,12.40
2023-01-26T18:07:43.513Z,12.20
2023-01-26T18:12:48.899Z,11.50
2023-01-26T18:17:52.617Z,12.60
2023-01-26T18:22:55.978Z,12.50
2023-01-26T18:28:00.780Z,13.35
2023-01-26T18:33:04.232Z,14.48
2023-01-26T18:38:07.629Z,17.02
2023-01-26T18:43:12.877Z,14.57
2023-01-26T18:48:16.408Z,13.73
2023-01-26T18:53:19.805Z,12.52
2023-01-26T18:58:24.724Z,16.07
2023-01-26T19:03:28.969Z,13.25
2023-01-26T19:08:34.431Z,15.97
2023-01-26T19:13:42.194Z,15.10
2023-01-26T19:18:45.436Z,13.77
2023-01-26T19:23:48.803Z,13.85
2023-01-26T19:28:55.386Z,14.43
2023-01-26T19:34:00.113Z,12.67
2023-01-26T19:39:04.817Z,13.63
2023-01-26T19:44:09.507Z,12.77
2023-01-26T19:49:13.619Z,12.70
2023-01-26T19:54:17.029Z,13.77
2023-01-26T19:59:22.530Z,15.32
2023-01-26T20:04:26.298Z,15.90
2023-01-26T20:09:34.615Z,15.50
2023-01-26T20:14:39.376Z,15.00
2023-01-26T20:19:42.673Z,16.98
2023-01-26T20:24:45.990Z,16.35
2023-01-26T20:29:51.100Z,15.13
2023-01-26T20:34:54.857Z,14.27
2023-01-26T20:39:58.582Z,15.73
2023-01-26T20:45:03.251Z,15.87
2023-01-26T20:50:08.138Z,15.32
2023-01-26T20:55:13.364Z,14.63
2023-01-26T21:00:19.627Z,14.30
2023-01-26T21:05:22.944Z,15.45
2023-01-26T21:10:26.501Z,15.15
2023-01-26T21:15:31.208Z,16.92
2023-01-26T21:20:34.552Z,18.93
2023-01-26T21:25:37.858Z,16.33
2023-01-26T21:30:42.811Z,19.92
2023-01-26T21:35:46.153Z,16.40
2023-01-26T21:40:49.520Z,15.48
2023-01-26T21:45:57.007Z,14.47
2023-01-26T21:51:18.465Z,15.65
2023-01-26T21:56:22.394Z,17.10
2023-01-26T22:01:28.110Z,16.23
2023-01-26T22:06:32.412Z,17.95
2023-01-26T22:11:35.997Z,17.48
2023-01-26T22:16:41.363Z,24.50
2023-01-26T22:21:44.965Z,23.43
2023-01-26T22:26:48.349Z,19.40
2023-01-26T22:31:53.168Z,18.23
2023-01-26T22:36:56.891Z,21.42
2023-01-26T22:42:00.173Z,24.08
2023-01-26T22:47:05.037Z,19.45
2023-01-26T22:52:08.399Z,19.52
2023-01-26T22:57:11.729Z,18.73
2023-01-26T23:02:16.811Z,16.23
2023-01-26T23:07:20.058Z,17.17
2023-01-26T23:12:23.553Z,17.30
2023-01-26T23:17:28.458Z,17.27
2023-01-26T23:22:31.791Z,15.20
2023-01-26T23:27:35.205Z,17.77
2023-01-26T23:32:40.039Z,17.08
2023-01-26T23:37:43.461Z,15.57
2023-01-26T23:43:03.339Z,16.13
2023-01-26T23:48:11.869Z,16.30
2023-01-26T23:53:15.661Z,15.10
2023-01-26T23:58:19.426Z,14.25
